Time;durP1;ratioP1;P1;durP2;ratioP2;P2;SDS_P1;SDS_P2;PMS_P1;PMS_P2;Temp;Humidity;BMP_temperature;BMP_pressure;BME280_temperature;BME280_humidity;BME280_pressure;Samples;Min_cycle;Max_cycle;Signal;HPM_P1;HPM_P2
2022/12/09 00:01:51;;;;;;;;;97.00;77.33;;;;;2.49;100.00;99112.78;6279999;20;3687933;-58
2022/12/09 00:04:20;;;;;;;;;94.33;77.67;;;;;2.51;100.00;99108.28;6280019;20;3673160;-58
2022/12/09 00:06:51;;;;;;;;;100.25;76.75;;;;;2.67;100.00;99098.81;6278553;20;3696231;-58
2022/12/09 00:09:22;;;;;;;;;120.25;99.00;;;;;2.51;100.00;99103.84;6275051;20;3709782;-59
2022/12/09 00:11:52;;;;;;;;;91.00;70.00;;;;;2.57;100.00;99102.72;6278912;20;3671208;-59
2022/12/09 00:14:22;;;;;;;;;93.00;73.67;;;;;2.59;100.00;99096.47;6281959;20;3673248;-59
2022/12/09 00:16:51;;;;;;;;;85.67;63.67;;;;;2.62;100.00;99100.78;6276477;20;3649258;-58
2022/12/09 00:19:21;;;;;;;;;91.67;68.00;;;;;2.54;100.00;99102.84;6313089;20;3662787;-58
2022/12/09 00:21:51;;;;;;;;;95.67;78.67;;;;;2.41;100.00;99107.75;6280990;20;3676511;-58
2022/12/09 00:24:21;;;;;;;;;93.33;72.00;;;;;2.40;100.00;99112.19;6280195;20;3666937;-59
2022/12/09 00:26:50;;;;;;;;;94.33;70.33;;;;;2.58;100.00;99110.63;6280036;20;3667964;-59
2022/12/09 00:29:20;;;;;;;;;97.00;78.00;;;;;2.49;100.00;99105.69;6280940;20;3675349;-59
2022/12/09 00:31:50;;;;;;;;;106.67;81.00;;;;;2.41;100.00;99105.97;6276453;20;3686754;-58
2022/12/09 00:34:19;;;;;;;;;92.00;75.00;;;;;2.50;100.00;99110.06;6280503;20;2718038;-58
2022/12/09 00:36:48;;;;;;;;;93.67;67.33;;;;;2.55;100.00;99110.72;6313076;20;3665884;-60
2022/12/09 00:39:18;;;;;;;;;83.67;64.00;;;;;2.45;100.00;99119.09;6278050;20;3640891;-59
2022/12/09 00:41:48;;;;;;;;;85.00;64.67;;;;;2.70;100.00;99111.09;6314625;20;3642959;-59
2022/12/09 00:44:19;;;;;;;;;92.00;70.67;;;;;2.31;100.00;99125.75;6310281;20;3671176;-58
2022/12/09 00:46:48;;;;;;;;;85.00;65.67;;;;;2.32;100.00;99119.56;6276946;20;3636847;-60
2022/12/09 00:49:18;;;;;;;;;91.00;72.67;;;;;2.36;100.00;99120.31;6312558;20;3653469;-59
2022/12/09 00:51:47;;;;;;;;;91.00;65.67;;;;;2.47;100.00;99120.75;6279583;20;3663787;-58
2022/12/09 00:54:17;;;;;;;;;91.67;66.33;;;;;2.61;100.00;99099.91;6275030;20;3671084;-59
2022/12/09 00:56:47;;;;;;;;;95.00;71.67;;;;;2.62;100.00;99112.22;6309584;20;3673152;-59
2022/12/09 00:59:17;;;;;;;;;90.33;69.67;;;;;2.34;100.00;99112.44;6279229;20;3668055;-59
2022/12/09 01:01:47;;;;;;;;;94.33;74.33;;;;;2.39;100.00;99121.03;6279001;20;3666950;-59
2022/12/09 01:04:17;;;;;;;;;93.33;71.00;;;;;2.55;100.00;99105.44;6280327;20;3666945;-59
2022/12/09 01:06:47;;;;;;;;;86.33;64.00;;;;;2.32;100.00;99114.28;6278307;20;3636729;-58
2022/12/09 01:09:17;;;;;;;;;87.33;66.00;;;;;2.29;100.00;99102.91;6309335;20;3658616;-60
2022/12/09 01:11:46;;;;;;;;;94.00;68.33;;;;;2.38;100.00;99107.88;6283187;20;3674215;-59
2022/12/09 01:14:17;;;;;;;;;83.33;64.33;;;;;2.21;100.00;99097.88;6283422;20;3627790;-58
2022/12/09 01:16:46;;;;;;;;;84.33;63.67;;;;;2.47;100.00;99102.22;6315590;20;3647159;-59
2022/12/09 01:19:16;;;;;;;;;91.33;71.00;;;;;2.24;100.00;99111.03;6317456;20;3666016;-59
2022/12/09 01:21:46;;;;;;;;;95.67;70.33;;;;;2.42;100.00;99118.31;6281957;20;3680621;-58
2022/12/09 01:24:15;;;;;;;;;84.00;62.67;;;;;2.30;100.00;99116.09;6281159;20;3649248;-58
2022/12/09 01:26:45;;;;;;;;;88.00;66.00;;;;;2.32;100.00;99108.97;6317070;20;3657695;-58
2022/12/09 01:29:15;;;;;;;;;83.00;63.00;;;;;2.34;100.00;99115.09;6314963;20;3646205;-59
2022/12/09 01:31:46;;;;;;;;;96.00;75.00;;;;;2.31;100.00;99114.31;6313871;20;3678430;-59
2022/12/09 01:34:16;;;;;;;;;89.67;70.00;;;;;2.36;100.00;99109.72;6282983;20;3667025;-58
2022/12/09 01:36:47;;;;;;;;;85.67;62.33;;;;;2.57;100.00;99110.69;6279902;20;3641084;-58
2022/12/09 01:39:16;;;;;;;;;84.67;66.67;;;;;2.31;100.00;99101.94;6316048;20;2884773;-60
2022/12/09 01:41:48;;;;;;;;;84.00;63.67;;;;;2.23;100.00;99100.50;6317168;20;3648194;-59
2022/12/09 01:44:25;;;;;;;;;91.33;68.67;;;;;2.29;100.00;99109.09;6314299;20;3666941;-59
2022/12/09 01:46:59;;;;;;;;;83.00;63.67;;;;;2.33;100.00;99102.75;6286065;20;2876367;-59
2022/12/09 01:49:45;;;;;;;;;84.00;66.00;;;;;2.48;100.00;99103.09;6316016;20;2885857;-59
2022/12/09 01:52:23;;;;;;;;;90.33;66.67;;;;;2.45;100.00;99100.53;6312748;20;3645071;-59
2022/12/09 01:54:54;;;;;;;;;91.00;71.00;;;;;2.34;100.00;99104.50;6314400;20;3658696;-59
2022/12/09 01:57:23;;;;;;;;;90.67;67.00;;;;;2.25;100.00;99102.16;6316201;20;3660824;-58
2022/12/09 01:59:53;;;;;;;;;91.00;69.33;;;;;2.31;100.00;99098.44;6281003;20;3660810;-59
2022/12/09 02:02:27;;;;;;;;;92.67;73.00;;;;;2.24;100.00;99089.84;6279253;20;3668290;-59
2022/12/09 02:04:57;;;;;;;;;94.00;72.33;;;;;2.45;100.00;99088.19;6279601;20;3672164;-59
2022/12/09 02:07:27;;;;;;;;;88.00;66.33;;;;;2.40;100.00;99085.69;6281393;20;3651357;-59
2022/12/09 02:09:57;;;;;;;;;89.67;67.00;;;;;2.18;100.00;99098.00;6312275;20;3656591;-59
2022/12/09 02:13:43;;;;;;;;;91.00;76.33;;;;;2.41;100.00;99103.31;6313531;20;3662784;-59
2022/12/09 02:16:22;;;;;;;;;84.33;66.33;;;;;2.32;100.00;99103.69;6277019;20;3640918;-59
2022/12/09 02:19:13;;;;;;;;;82.33;64.00;;;;;2.53;100.00;99101.16;6311690;20;3632542;-59
2022/12/09 02:22:04;;;;;;;;;87.33;64.33;;;;;2.35;100.00;99098.25;6314234;20;3660749;-60
2022/12/09 02:25:13;;;;;;;;;86.00;62.67;;;;;2.12;100.00;99088.50;6277119;20;3635774;-58
2022/12/09 02:28:31;;;;;;;;;90.67;68.00;;;;;2.45;100.00;99088.19;6310063;20;3660680;-59
2022/12/09 02:31:31;;;;;;;;;91.67;68.33;;;;;2.34;100.00;99093.91;6281250;20;3639879;-59
2022/12/09 02:34:30;;;;;;;;;85.00;66.33;;;;;2.23;100.00;99093.41;6313836;20;2877466;-59
2022/12/09 02:37:20;;;;;;;;;91.00;67.67;;;;;2.27;100.00;99089.75;6312284;20;3672171;-59
2022/12/09 02:40:05;;;;;;;;;85.00;65.00;;;;;2.35;100.00;99089.44;6279523;20;3639946;-59
2022/12/09 02:42:37;;;;;;;;;86.00;62.00;;;;;2.33;100.00;99078.91;6313853;20;2786823;-59
2022/12/09 02:45:10;;;;;;;;;89.00;64.33;;;;;2.46;100.00;99071.34;6280641;20;3644075;-59
2022/12/09 02:47:49;;;;;;;;;90.67;66.33;;;;;2.35;100.00;99077.06;6311791;20;3655474;-59
2022/12/09 02:50:25;;;;;;;;;86.67;65.67;;;;;2.32;100.00;99073.69;6275324;20;3649325;-59
2022/12/09 02:53:01;;;;;;;;;91.75;67.50;;;;;2.24;100.00;99087.22;6313862;20;4407646;-58
2022/12/09 02:55:32;;;;;;;;;89.00;66.67;;;;;2.39;100.00;99083.97;6313364;20;3659648;-59
2022/12/09 02:58:03;;;;;;;;;87.67;64.33;;;;;2.17;100.00;99081.25;6280423;20;3657700;-59
2022/12/09 03:00:32;;;;;;;;;88.67;64.67;;;;;2.40;100.00;99069.81;6310883;20;3651497;-58
2022/12/09 03:03:06;;;;;;;;;89.33;65.00;;;;;2.43;100.00;99076.78;6310990;20;3639922;-59
2022/12/09 03:05:55;;;;;;;;;88.33;65.67;;;;;2.48;100.00;99079.25;6316024;20;3644170;-59
2022/12/09 03:09:09;;;;;;;;;93.00;72.00;;;;;2.33;100.00;99081.56;6312112;20;3666185;-58
2022/12/09 03:11:40;;;;;;;;;85.33;65.33;;;;;2.22;100.00;99081.09;6279329;20;3638888;-59
2022/12/09 03:14:28;;;;;;;;;81.67;61.67;;;;;2.49;100.00;99073.88;6312187;20;3637771;-59
2022/12/09 03:17:30;;;;;;;;;91.00;71.67;;;;;2.37;100.00;99069.03;6310867;20;3648211;-59
2022/12/09 03:20:12;;;;;;;;;93.00;69.50;;;;;2.34;100.00;99066.50;6311697;20;3617019;-59
2022/12/09 03:22:45;;;;;;;;;90.00;68.00;;;;;2.31;100.00;99064.84;6313651;20;3657565;-59
2022/12/09 03:25:32;;;;;;;;;91.33;72.67;;;;;2.06;100.00;99061.41;6279712;20;3656551;-59
2022/12/09 03:28:11;;;;;;;;;91.67;67.33;;;;;2.43;100.00;99063.53;6314852;20;3663804;-59
2022/12/09 03:30:44;;;;;;;;;89.00;67.00;;;;;2.33;100.00;99063.00;6279865;20;3649231;-59
2022/12/09 03:33:17;;;;;;;;;90.67;71.00;;;;;2.39;100.00;99077.81;6307491;20;3661735;-59
2022/12/09 03:36:01;;;;;;;;;92.50;72.25;;;;;2.31;100.00;99067.50;6282699;20;4420206;-59
2022/12/09 03:38:36;;;;;;;;;93.67;66.67;;;;;2.45;100.00;99082.88;6311501;20;3671082;-59
2022/12/09 03:41:28;;;;;;;;;98.67;75.67;;;;;2.22;100.00;99093.47;6310616;20;3687791;-57
2022/12/09 03:44:16;;;;;;;;;96.00;76.33;;;;;2.29;100.00;99097.59;6279982;20;3666964;-58
2022/12/09 03:46:47;;;;;;;;;98.67;79.33;;;;;2.31;100.00;99080.75;6278947;20;3693119;-59
2022/12/09 03:49:16;;;;;;;;;89.00;72.67;;;;;2.25;100.00;99080.97;6278852;20;3655508;-59
2022/12/09 03:52:11;;;;;;;;;87.67;65.33;;;;;2.48;100.00;99073.97;6308598;20;3653448;-59
2022/12/09 03:54:47;;;;;;;;;90.00;67.67;;;;;2.56;100.00;99079.81;6314192;20;3650276;-58
2022/12/09 03:57:19;;;;;;;;;102.00;76.67;;;;;2.18;100.00;99079.47;6311398;20;3689888;-59
2022/12/09 04:00:08;;;;;;;;;94.67;71.67;;;;;2.19;100.00;99062.69;6278555;20;3672234;-59
2022/12/09 04:02:39;;;;;;;;;88.00;65.33;;;;;2.35;100.00;99077.06;6278591;20;3665879;-59
2022/12/09 04:05:09;;;;;;;;;87.67;65.67;;;;;2.28;100.00;99080.84;6280901;20;3648173;-59
2022/12/09 04:07:39;;;;;;;;;89.33;65.67;;;;;2.48;100.00;99087.22;6314474;20;3655483;-59
2022/12/09 04:10:09;;;;;;;;;88.67;65.33;;;;;2.46;100.00;99083.75;6308181;20;3646206;-58
2022/12/09 04:12:40;;;;;;;;;144.00;106.75;;;;;2.51;100.00;99077.34;6309501;20;4479505;-59
2022/12/09 04:15:10;;;;;;;;;124.00;91.50;;;;;2.62;100.00;99079.56;6282438;20;3579986;-59
2022/12/09 04:17:40;;;;;;;;;97.00;70.33;;;;;2.45;100.00;99072.28;6305443;20;3668107;-59
2022/12/09 04:20:11;;;;;;;;;95.00;69.67;;;;;2.31;100.00;99070.16;6277184;20;3667350;-59
2022/12/09 04:22:41;;;;;;;;;79.33;62.00;;;;;2.38;100.00;99066.34;6278251;20;3630472;-59
2022/12/09 04:25:11;;;;;;;;;79.67;57.00;;;;;2.53;100.00;99069.34;6310867;20;3637792;-58
2022/12/09 04:27:41;;;;;;;;;95.00;74.33;;;;;2.33;100.00;99068.31;6312526;20;3680513;-59
2022/12/09 04:30:11;;;;;;;;;81.33;62.33;;;;;2.28;100.00;99074.72;6275810;20;2899455;-59
2022/12/09 04:32:42;;;;;;;;;115.00;89.00;;;;;2.33;100.00;99070.09;6311788;20;3570044;-59
2022/12/09 04:35:10;;;;;;;;;217.50;179.00;;;;;2.40;100.00;99072.47;6306013;20;1958770;-59
2022/12/09 04:37:41;;;;;;;;;152.25;121.00;;;;;2.10;100.00;99065.66;6272545;20;3722409;-59
2022/12/09 04:40:12;;;;;;;;;98.00;76.00;;;;;2.29;100.00;99061.41;6310323;20;3681618;-59
2022/12/09 04:42:51;;;;;;;;;98.33;74.33;;;;;2.22;100.00;99075.81;6277936;20;3684670;-58
2022/12/09 04:45:21;;;;;;;;;103.33;84.00;;;;;2.25;100.00;99073.03;6277547;20;3684830;-58
2022/12/09 04:47:51;;;;;;;;;98.00;68.67;;;;;2.45;100.00;99071.41;6280279;20;3667956;-59
2022/12/09 04:50:21;;;;;;;;;94.33;79.67;;;;;2.47;100.00;99062.47;6278078;20;3659638;-59
2022/12/09 04:52:50;;;;;;;;;90.33;72.67;;;;;2.40;100.00;99064.50;6278553;20;3650266;-58
2022/12/09 04:55:20;;;;;;;;;94.33;67.33;;;;;2.59;100.00;99061.16;6311908;20;3661818;-59
2022/12/09 04:57:50;;;;;;;;;91.00;73.33;;;;;2.50;100.00;99065.03;6310607;20;3659769;-58
2022/12/09 05:00:20;;;;;;;;;95.33;65.33;;;;;2.51;100.00;99060.59;6311353;20;3662808;-59
2022/12/09 05:02:50;;;;;;;;;111.67;87.00;;;;;2.40;100.00;99059.22;6275840;20;3689911;-58
2022/12/09 05:05:20;;;;;;;;;113.33;92.67;;;;;2.44;100.00;99059.09;6280873;20;3692996;-59
2022/12/09 05:07:50;;;;;;;;;95.25;76.00;;;;;2.33;100.00;99063.00;6280382;20;4434076;-59
2022/12/09 05:10:22;;;;;;;;;396.00;293.00;;;;;2.39;100.00;99065.41;6311110;20;4524732;-58
2022/12/09 05:12:52;;;;;;;;;301.75;231.00;;;;;2.32;100.00;99071.88;6277333;20;4495042;-59
2022/12/09 05:15:22;;;;;;;;;573.67;393.00;;;;;2.46;100.00;99067.84;6280918;20;3751400;-59
2022/12/09 05:17:52;;;;;;;;;334.50;235.75;;;;;2.59;100.00;99063.78;6277774;20;4496073;-59
2022/12/09 05:20:26;;;;;;;;;287.00;209.00;;;;;2.47;100.00;99067.78;6278312;20;4472084;-58
2022/12/09 05:22:56;;;;;;;;;205.75;159.50;;;;;2.41;100.00;99066.22;6311836;20;4480560;-59
2022/12/09 05:25:27;;;;;;;;;411.00;303.00;;;;;2.43;100.00;99058.22;6277071;20;4535671;-59
2022/12/09 05:27:55;;;;;;;;;173.50;135.00;;;;;2.28;100.00;99064.97;6276069;20;1960793;-59
2022/12/09 05:30:25;;;;;;;;;217.33;169.00;;;;;2.49;100.00;99059.78;6275207;20;3696322;-59
2022/12/09 05:32:55;;;;;;;;;248.67;178.67;;;;;2.50;100.00;99053.53;6280009;20;3712771;-59
2022/12/09 05:35:26;;;;;;;;;153.00;120.00;;;;;2.36;100.00;99073.47;6280248;20;4482648;-59
2022/12/09 05:37:54;;;;;;;;;154.00;128.00;;;;;2.43;100.00;99074.13;6306769;20;1956540;-59
2022/12/09 05:40:25;;;;;;;;;398.25;299.00;;;;;2.32;100.00;99073.69;6270129;20;4534707;-58
2022/12/09 05:42:56;;;;;;;;;217.50;152.50;;;;;2.59;100.00;99069.09;6276614;20;3720453;-58
2022/12/09 05:45:26;;;;;;;;;112.50;92.25;;;;;2.52;100.00;99072.91;6313188;20;4450247;-59
2022/12/09 05:47:54;;;;;;;;;97.00;77.00;;;;;2.61;100.00;99068.13;6308790;20;2791949;-58
2022/12/09 05:50:24;;;;;;;;;94.00;72.67;;;;;2.62;100.00;99063.66;6273318;20;3673214;-59
2022/12/09 05:52:54;;;;;;;;;96.00;73.00;;;;;2.56;100.00;99066.56;6279873;20;3672128;-59
2022/12/09 05:55:24;;;;;;;;;113.67;91.67;;;;;2.37;100.00;99069.94;6275701;20;3690975;-59
2022/12/09 05:57:54;;;;;;;;;106.00;87.67;;;;;2.56;100.00;99075.38;6275794;20;3695168;-59
2022/12/09 06:00:25;;;;;;;;;147.75;117.25;;;;;2.61;100.00;99069.91;6277904;20;4500183;-59
2022/12/09 06:02:55;;;;;;;;;104.00;89.33;;;;;2.59;100.00;99063.78;6284731;20;3680543;-59
2022/12/09 06:05:25;;;;;;;;;108.33;88.67;;;;;2.64;100.00;99052.09;6282363;20;3701407;-57
2022/12/09 06:07:56;;;;;;;;;103.75;81.00;;;;;2.56;100.00;99045.38;6285452;20;3698201;-58
2022/12/09 06:10:33;;;;;;;;;117.33;93.33;;;;;2.46;100.00;99041.34;6317588;20;3703502;-59
2022/12/09 06:13:04;;;;;;;;;109.00;93.00;;;;;2.57;100.00;99039.13;6285989;20;3674208;-59
2022/12/09 06:15:34;;;;;;;;;125.33;97.00;;;;;2.50;100.00;99032.34;6282914;20;3712801;-59
2022/12/09 06:18:04;;;;;;;;;113.00;94.67;;;;;2.42;100.00;99036.19;6281640;20;3699387;-59
2022/12/09 06:20:39;;;;;;;;;116.00;90.00;;;;;2.56;100.00;99040.06;6280552;20;3704421;-59
2022/12/09 06:23:08;;;;;;;;;134.00;105.00;;;;;2.70;100.00;99032.44;6281593;20;3714887;-58
2022/12/09 06:25:44;;;;;;;;;116.00;91.67;;;;;2.58;100.00;99020.53;6282863;20;3698212;-59
2022/12/09 06:28:14;;;;;;;;;98.00;79.33;;;;;2.58;100.00;99017.91;6281339;20;3683571;-58
2022/12/09 06:30:44;;;;;;;;;95.33;71.67;;;;;2.53;100.00;99024.31;6283278;20;3677359;-59
2022/12/09 06:33:15;;;;;;;;;113.00;89.75;;;;;2.35;100.00;99020.59;6280696;20;3702332;-59
2022/12/09 06:36:05;;;;;;;;;104.67;82.67;;;;;2.39;100.00;99019.53;6281540;20;3682666;-59
2022/12/09 06:38:36;;;;;;;;;115.67;92.33;;;;;2.61;100.00;99008.97;6280355;20;3705506;-58
2022/12/09 06:41:13;;;;;;;;;96.33;83.33;;;;;2.24;100.00;99014.81;6280919;20;3649255;-58
2022/12/09 06:43:43;;;;;;;;;97.00;73.33;;;;;2.39;100.00;99028.31;6276714;20;3672121;-58
2022/12/09 06:46:21;;;;;;;;;96.67;75.67;;;;;2.26;100.00;99027.06;6280739;20;3663814;-58
2022/12/09 06:48:54;;;;;;;;;106.67;85.00;;;;;2.40;100.00;99026.56;6284517;20;3697234;-59
2022/12/09 06:51:25;;;;;;;;;126.25;101.50;;;;;2.49;100.00;99041.22;6280504;20;4486759;-58
2022/12/09 06:53:55;;;;;;;;;108.00;84.33;;;;;2.52;100.00;99035.81;6282131;20;3684685;-59
2022/12/09 06:56:26;;;;;;;;;104.00;86.33;;;;;2.67;100.00;99043.16;6281895;20;3680483;-58
2022/12/09 06:58:56;;;;;;;;;99.33;84.67;;;;;2.74;100.00;99046.41;6281782;20;3670164;-58
2022/12/09 07:01:26;;;;;;;;;99.67;84.00;;;;;2.55;100.00;99048.94;6282989;20;3673203;-58
2022/12/09 07:03:57;;;;;;;;;106.33;87.00;;;;;2.75;100.00;99053.44;6282816;20;3705511;-58
2022/12/09 07:06:39;;;;;;;;;98.67;83.00;;;;;2.79;100.00;99047.97;6282038;20;3666942;-56
2022/12/09 07:09:20;;;;;;;;;103.00;78.00;;;;;2.85;100.00;99046.84;6279631;20;3694074;-58
2022/12/09 07:11:50;;;;;;;;;106.00;81.67;;;;;3.00;100.00;99048.00;6281463;20;3691918;-58
2022/12/09 07:14:20;;;;;;;;;97.67;77.00;;;;;2.95;100.00;99044.69;6280467;20;3656620;-58
2022/12/09 07:16:51;;;;;;;;;99.00;84.00;;;;;2.93;100.00;99046.56;6280554;20;3674209;-58
2022/12/09 07:19:23;;;;;;;;;107.33;84.00;;;;;2.85;100.00;99045.06;6280950;20;3690882;-58
2022/12/09 07:21:53;;;;;;;;;98.67;77.00;;;;;2.64;100.00;99032.69;6281345;20;3689879;-59
2022/12/09 07:24:24;;;;;;;;;91.67;69.67;;;;;2.55;100.00;99027.72;6282150;20;3661704;-58
2022/12/09 07:26:53;;;;;;;;;99.33;83.33;;;;;2.67;100.00;99024.59;6279794;20;3664868;-58
2022/12/09 07:29:23;;;;;;;;;102.33;80.67;;;;;2.81;100.00;99030.19;6280739;20;3694140;-58
2022/12/09 07:31:53;;;;;;;;;94.67;75.00;;;;;2.83;100.00;99022.19;6281036;20;3667953;-58
2022/12/09 07:34:23;;;;;;;;;103.67;83.33;;;;;2.81;100.00;99013.44;6281355;20;3701558;-58
2022/12/09 07:36:54;;;;;;;;;111.33;91.33;;;;;2.83;100.00;99015.09;6279459;20;3694001;-57
2022/12/09 07:39:22;;;;;;;;;143.00;125.50;;;;;3.07;100.00;99013.22;6275756;20;1957588;-58
2022/12/09 07:41:55;;;;;;;;;106.00;83.67;;;;;2.92;100.00;99018.28;6281499;20;3697121;-57
2022/12/09 07:44:28;;;;;;;;;112.33;91.67;;;;;3.03;100.00;99018.72;6281252;20;3698244;-58
2022/12/09 07:46:59;;;;;;;;;138.25;120.50;;;;;3.04;100.00;99009.84;6282071;20;4508609;-59
2022/12/09 07:49:27;;;;;;;;;142.50;124.00;;;;;3.08;100.00;99020.25;6274696;20;1950287;-59
2022/12/09 07:51:58;;;;;;;;;107.67;86.00;;;;;2.96;100.00;99020.75;6277495;20;3695183;-59
2022/12/09 07:54:27;;;;;;;;;94.00;77.00;;;;;3.20;100.00;99024.19;6278563;20;3664946;-59
2022/12/09 07:56:58;;;;;;;;;118.33;97.33;;;;;3.14;100.00;99019.13;6279098;20;3701356;-59
2022/12/09 07:59:26;;;;;;;;;134.50;102.50;;;;;3.29;100.00;99023.81;6275166;20;1960821;-59
2022/12/09 08:01:56;;;;;;;;;120.33;111.00;;;;;3.35;100.00;99019.16;6280072;20;3701320;-59
2022/12/09 08:04:35;;;;;;;;;99.33;83.00;;;;;3.34;100.00;99014.75;6278232;20;3676331;-59
2022/12/09 08:07:06;;;;;;;;;121.33;99.67;;;;;3.29;100.00;99009.66;6282560;20;3700270;-59
2022/12/09 08:09:35;;;;;;;;;87.33;69.67;;;;;3.28;100.00;99007.94;6279890;20;3640902;-59
2022/12/09 08:12:06;;;;;;;;;96.67;81.00;;;;;3.17;100.00;99007.53;6313340;20;3664836;-58
2022/12/09 08:14:36;;;;;;;;;93.00;80.33;;;;;3.04;100.00;99009.84;6283081;20;3665889;-59
2022/12/09 08:17:05;;;;;;;;;95.67;72.00;;;;;3.28;100.00;99008.78;6281076;20;3681554;-59
2022/12/09 08:19:35;;;;;;;;;97.67;78.00;;;;;3.33;100.00;99002.44;6277145;20;3685686;-59
2022/12/09 08:22:05;;;;;;;;;83.33;63.33;;;;;3.34;100.00;98997.06;6279935;20;3630576;-59
2022/12/09 08:24:35;;;;;;;;;88.67;67.67;;;;;3.23;100.00;98997.50;6312380;20;3668986;-59
2022/12/09 08:27:05;;;;;;;;;93.33;74.67;;;;;3.24;100.00;98999.25;6280808;20;3667014;-58
2022/12/09 08:29:35;;;;;;;;;92.67;74.67;;;;;3.20;100.00;98991.50;6277298;20;3673160;-59
2022/12/09 08:32:06;;;;;;;;;106.25;90.50;;;;;3.02;100.00;98993.97;6284121;20;3679431;-59
2022/12/09 08:34:36;;;;;;;;;89.67;70.00;;;;;3.07;100.00;98996.44;6312239;20;3655459;-59
2022/12/09 08:37:05;;;;;;;;;154.50;133.00;;;;;3.24;100.00;98988.66;6277702;20;4464831;-59
2022/12/09 08:39:35;;;;;;;;;261.25;215.00;;;;;3.37;100.00;98977.47;6312123;20;4481484;-59
2022/12/09 08:42:05;;;;;;;;;103.33;85.67;;;;;3.36;100.00;98979.28;6317234;20;3705552;-58
2022/12/09 08:44:38;;;;;;;;;111.25;95.25;;;;;3.33;100.00;98974.13;6312091;20;3704487;-59
2022/12/09 08:47:07;;;;;;;;;137.00;116.50;;;;;3.39;100.00;98971.19;6278765;20;4490881;-59
2022/12/09 08:49:36;;;;;;;;;157.00;127.00;;;;;3.37;100.00;98965.09;6270945;20;1965992;-59
2022/12/09 08:52:07;;;;;;;;;160.50;116.50;;;;;3.39;100.00;98963.22;6282216;20;4489845;-59
2022/12/09 08:54:38;;;;;;;;;303.25;240.50;;;;;3.42;100.00;98960.47;6280732;20;3740954;-59
2022/12/09 08:57:06;;;;;;;;;275.00;222.00;;;;;3.39;100.00;98960.56;6280918;20;2746242;-58
2022/12/09 08:59:36;;;;;;;;;157.67;129.00;;;;;3.58;100.00;98954.44;6310536;20;3726323;-59
2022/12/09 09:02:11;;;;;;;;;597.50;405.25;;;;;3.69;100.00;98945.09;6233489;20;4544004;-58
2022/12/09 09:04:40;;;;;;;;;626.20;475.20;;;;;3.67;100.00;98943.44;6234403;20;5327383;-58
2022/12/09 09:07:12;;;;;;;;;173.25;144.25;;;;;3.91;100.00;98938.78;6278958;20;4463796;-59
2022/12/09 09:09:40;;;;;;;;;146.50;119.00;;;;;3.69;100.00;98931.81;6268262;20;1948265;-58
2022/12/09 09:12:08;;;;;;;;;135.00;107.50;;;;;3.90;100.00;98932.63;6273794;20;1953446;-59
2022/12/09 09:14:36;;;;;;;;;200.50;163.00;;;;;3.92;100.00;98930.75;6273851;20;1959670;-59
2022/12/09 09:17:07;;;;;;;;;135.50;111.25;;;;;3.85;100.00;98931.97;6278963;20;4488820;-59
2022/12/09 09:19:38;;;;;;;;;92.67;70.00;;;;;4.11;100.00;98937.84;6278282;20;3680455;-59
2022/12/09 09:22:08;;;;;;;;;94.33;82.67;;;;;3.89;100.00;98930.00;6279600;20;3676457;-59
2022/12/09 09:24:38;;;;;;;;;91.67;72.00;;;;;3.70;100.00;98928.22;6279823;20;3661740;-59
2022/12/09 09:27:07;;;;;;;;;122.00;104.00;;;;;3.92;100.00;98917.47;6276031;20;1953520;-59
2022/12/09 09:29:36;;;;;;;;;105.33;92.33;;;;;4.02;100.00;98923.19;6278231;20;3675225;-59
2022/12/09 09:32:07;;;;;;;;;104.33;85.67;;;;;3.78;100.00;98919.03;6281049;20;3691909;-59
2022/12/09 09:34:37;;;;;;;;;107.67;100.33;;;;;3.97;100.00;98920.75;6283922;20;3694080;-59
2022/12/09 09:37:07;;;;;;;;;92.67;72.00;;;;;3.84;100.00;98916.09;6280745;20;3651327;-59
2022/12/09 09:39:39;;;;;;;;;88.67;67.33;;;;;3.87;100.00;98913.28;6283966;20;3673252;-59
2022/12/09 09:42:36;;;;;;;;;107.67;86.00;;;;;3.99;100.00;98904.75;6279982;20;3697139;-59
2022/12/09 09:45:21;;;;;;;;;119.25;93.75;;;;;4.11;100.00;98892.69;6281225;20;3712839;-59
2022/12/09 09:48:02;;;;;;;;;100.33;84.00;;;;;3.93;100.00;98891.78;6281166;20;3670135;-59
2022/12/09 09:50:44;;;;;;;;;69.00;58.00;;;;;4.20;100.00;98888.72;6281686;20;2862777;-59
2022/12/09 09:53:31;;;;;;;;;79.00;61.67;;;;;4.20;100.00;98889.59;6284025;20;2873277;-59
2022/12/09 09:56:25;;;;;;;;;72.33;53.67;;;;;4.23;100.00;98888.56;6313814;20;3632664;-59
2022/12/09 09:59:49;;;;;;;;;86.67;67.33;;;;;4.26;100.00;98883.09;6314973;20;3654438;-59
2022/12/09 10:03:02;;;;;;;;;134.25;111.75;;;;;4.30;100.00;98876.72;6279167;20;4481512;-59
2022/12/09 10:05:56;;;;;;;;;71.67;51.67;;;;;4.09;100.00;98876.81;6312763;20;2882749;-59
2022/12/09 10:09:08;;;;;;;;;87.33;66.67;;;;;4.21;100.00;98862.06;6313672;20;3669008;-59
2022/12/09 10:12:00;;;;;;;;;95.67;80.33;;;;;4.34;100.00;98852.56;6281288;20;3677453;-59
2022/12/09 10:15:04;;;;;;;;;71.33;54.00;;;;;4.28;100.00;98854.66;6281868;20;3641954;-59
2022/12/09 10:17:49;;;;;;;;;79.33;58.00;;;;;4.25;100.00;98833.56;6312785;20;3623305;-59
2022/12/09 10:20:27;;;;;;;;;83.67;61.00;;;;;4.13;100.00;98835.91;6311787;20;3645100;-59
2022/12/09 10:23:11;;;;;;;;;75.00;58.00;;;;;4.23;100.00;98832.78;6313565;20;3612776;-59
2022/12/09 10:25:55;;;;;;;;;66.00;51.00;;;;;4.24;100.00;98822.09;6312321;20;3622125;-59
2022/12/09 10:28:42;;;;;;;;;69.00;53.00;;;;;4.09;100.00;98813.06;6315983;20;3631530;-59
2022/12/09 10:31:12;;;;;;;;;72.33;54.67;;;;;4.31;100.00;98806.69;6313176;20;3639832;-59
2022/12/09 10:33:42;;;;;;;;;60.00;50.33;;;;;4.30;100.00;98810.28;6312722;20;2875343;-59
2022/12/09 10:36:28;;;;;;;;;66.00;51.67;;;;;4.37;100.00;98807.25;6314259;20;3643086;-59
2022/12/09 10:39:04;;;;;;;;;75.33;54.67;;;;;4.41;100.00;98792.00;6311372;20;3625255;-59
2022/12/09 10:44:39;;;;;;;;;54.00;42.00;;;;;4.25;100.00;98767.16;6310938;20;2730545;-59
2022/12/09 10:47:26;;;;;;;;;58.67;42.67;;;;;4.13;100.00;98756.22;6311959;20;3624238;-59
2022/12/09 10:49:58;;;;;;;;;59.00;40.67;;;;;4.24;100.00;98755.66;6310867;20;2882786;-59
2022/12/09 10:52:43;;;;;;;;;51.33;42.00;;;;;4.13;100.00;98750.00;6315340;20;2868019;-59
2022/12/09 10:55:42;;;;;;;;;58.33;43.67;;;;;4.29;100.00;98755.41;6311989;20;2870102;-59
2022/12/09 10:58:26;;;;;;;;;65.67;50.33;;;;;4.20;100.00;98746.13;6315114;20;3625341;-60
2022/12/09 11:01:01;;;;;;;;;62.33;48.33;;;;;4.22;100.00;98748.72;6314085;20;2883726;-58
2022/12/09 11:03:39;;;;;;;;;60.00;47.33;;;;;4.20;100.00;98745.28;6313460;20;2873214;-59
2022/12/09 11:06:32;;;;;;;;;57.00;41.50;;;;;4.33;100.00;98736.59;6312061;20;2853453;-59
2022/12/09 11:09:03;;;;;;;;;65.33;50.67;;;;;4.31;100.00;98743.78;6279398;20;2879636;-59
2022/12/09 11:11:48;;;;;;;;;60.33;41.67;;;;;4.45;100.00;98729.78;6314536;20;3633575;-59
2022/12/09 11:14:32;;;;;;;;;60.00;48.00;;;;;4.35;100.00;98716.13;6313526;20;3619150;-59
2022/12/09 11:17:31;;;;;;;;;57.67;40.00;;;;;4.22;100.00;98707.06;6312174;20;2875351;-59
2022/12/09 11:20:04;;;;;;;;;60.33;43.33;;;;;4.39;100.00;98706.16;6310444;20;2880551;-59
2022/12/09 11:22:40;;;;;;;;;55.00;40.00;;;;;4.13;100.00;98713.72;6314223;20;2856557;-59
2022/12/09 11:25:27;;;;;;;;;62.00;46.33;;;;;4.08;100.00;98706.88;6279479;20;3633632;-59
2022/12/09 11:28:02;;;;;;;;;45.00;34.00;;;;;4.22;100.00;98708.88;6314650;20;2815942;-59
2022/12/09 11:30:47;;;;;;;;;30.50;20.00;;;;;4.00;100.00;98706.41;6279211;20;2849231;-60
2022/12/09 11:33:47;;;;;;;;;41.33;31.33;;;;;3.89;100.00;98688.38;6279233;20;2862772;-59
2022/12/09 11:36:36;;;;;;;;;63.33;43.67;;;;;3.77;100.00;98687.22;6310182;20;2884758;-59